createdAt,value
2018-07-14T00:00:22.296Z,98927.00
2018-07-14T00:02:56.285Z,98926.00
2018-07-14T00:05:26.816Z,98921.00
2018-07-14T00:07:57.244Z,98923.00
2018-07-14T00:10:27.169Z,98922.00
2018-07-14T00:13:04.549Z,98920.00
2018-07-14T00:15:36.309Z,98923.00
2018-07-14T00:18:08.301Z,98916.00
2018-07-14T00:20:39.496Z,98916.00
2018-07-14T00:23:11.389Z,98912.00
2018-07-14T00:25:51.619Z,98913.00
2018-07-14T00:28:21.784Z,98910.00
2018-07-14T00:30:56.316Z,98918.00
2018-07-14T00:33:27.329Z,98919.00
2018-07-14T00:35:58.000Z,98915.00
2018-07-14T00:38:28.912Z,98919.00
2018-07-14T00:41:01.538Z,98917.00
2018-07-14T00:43:36.489Z,98918.00
2018-07-14T00:46:11.241Z,98912.00
2018-07-14T00:48:41.441Z,98915.00
2018-07-14T00:51:11.908Z,98911.00
2018-07-14T00:53:45.036Z,98920.00
2018-07-14T00:56:16.024Z,98919.00
2018-07-14T00:58:45.748Z,98921.00
2018-07-14T01:01:19.015Z,98924.00
2018-07-14T01:03:52.911Z,98925.00
2018-07-14T01:06:29.933Z,98930.00
2018-07-14T01:08:59.604Z,98927.00
2018-07-14T01:11:31.054Z,98930.00
2018-07-14T01:14:00.891Z,98937.00
2018-07-14T01:16:30.371Z,98936.00
2018-07-14T01:19:01.951Z,98931.00
2018-07-14T01:21:35.624Z,98930.00
2018-07-14T01:24:06.785Z,98918.00
2018-07-14T01:26:39.760Z,98911.00
2018-07-14T01:29:09.165Z,98909.00
2018-07-14T01:31:41.269Z,98902.00
2018-07-14T01:34:12.784Z,98901.00
2018-07-14T01:36:43.492Z,98900.00
2018-07-14T01:39:14.917Z,98901.00
2018-07-14T01:41:48.184Z,98902.00
2018-07-14T01:44:19.144Z,98902.00
2018-07-14T01:46:49.945Z,98903.00
2018-07-14T01:49:24.770Z,98907.00
2018-07-14T01:51:55.474Z,98909.00
2018-07-14T01:54:27.662Z,98915.00
2018-07-14T01:56:58.869Z,98914.00
2018-07-14T01:59:28.617Z,98916.00
2018-07-14T02:02:00.352Z,98913.00
2018-07-14T02:04:31.888Z,98917.00
2018-07-14T02:07:07.916Z,98912.00
2018-07-14T02:09:39.472Z,98908.00
2018-07-14T02:12:10.772Z,98910.00
2018-07-14T02:14:42.125Z,98916.00
2018-07-14T02:17:15.611Z,98913.00
2018-07-14T02:19:47.811Z,98911.00
2018-07-14T02:22:21.155Z,98912.00
2018-07-14T02:24:53.017Z,98907.00
2018-07-14T02:27:33.224Z,98908.00
2018-07-14T02:30:04.189Z,98909.00
2018-07-14T02:32:35.614Z,98905.00
2018-07-14T02:35:08.440Z,98903.00
2018-07-14T02:37:40.968Z,98905.00
2018-07-14T02:40:11.440Z,98909.00
2018-07-14T02:42:46.431Z,98908.00
2018-07-14T02:45:20.633Z,98912.00
2018-07-14T02:47:50.925Z,98911.00
2018-07-14T02:50:22.493Z,98913.00
2018-07-14T02:52:51.801Z,98912.00
2018-07-14T02:55:24.081Z,98909.00
2018-07-14T02:57:54.161Z,98915.00
2018-07-14T03:00:28.822Z,98911.00
2018-07-14T03:02:58.560Z,98911.00
2018-07-14T03:05:29.756Z,98915.00
2018-07-14T03:08:00.669Z,98913.00
2018-07-14T03:10:30.392Z,98919.00
2018-07-14T03:13:01.084Z,98920.00
2018-07-14T03:15:31.973Z,98917.00
2018-07-14T03:18:05.524Z,98912.00
2018-07-14T03:20:36.680Z,98912.00
2018-07-14T03:23:09.561Z,98906.00
2018-07-14T03:25:39.359Z,98909.00
2018-07-14T03:28:10.194Z,98919.00
2018-07-14T03:30:39.720Z,98922.00
2018-07-14T03:33:10.007Z,98928.00
2018-07-14T03:35:41.392Z,98928.00
2018-07-14T03:38:12.211Z,98927.00
2018-07-14T03:40:45.741Z,98929.00
2018-07-14T03:45:54.049Z,98922.00
2018-07-14T03:48:24.749Z,98924.00
2018-07-14T03:50:56.954Z,98930.00
2018-07-14T03:53:27.778Z,98929.00
2018-07-14T03:55:56.858Z,98928.00
2018-07-14T03:58:29.325Z,98933.00
2018-07-14T04:01:03.805Z,98934.00
2018-07-14T04:03:33.792Z,98937.00
2018-07-14T04:06:03.464Z,98941.00
2018-07-14T04:08:33.311Z,98934.00
2018-07-14T04:11:02.652Z,98938.00
2018-07-14T04:13:34.985Z,98939.00
2018-07-14T04:16:04.664Z,98940.00
2018-07-14T04:18:35.121Z,98944.00
2018-07-14T04:21:05.785Z,98951.00
2018-07-14T04:23:36.488Z,98946.00
2018-07-14T04:26:05.852Z,98947.00
2018-07-14T04:28:35.976Z,98945.00
2018-07-14T04:31:07.337Z,98942.00
2018-07-14T04:33:38.569Z,98941.00
2018-07-14T04:36:10.980Z,98946.00
2018-07-14T04:38:42.821Z,98949.00
2018-07-14T04:41:14.565Z,98945.00
2018-07-14T04:43:45.507Z,98947.00
2018-07-14T04:46:15.724Z,98951.00
2018-07-14T04:48:48.213Z,98945.00
2018-07-14T04:51:19.804Z,98943.00
2018-07-14T04:53:52.029Z,98942.00
2018-07-14T04:56:23.017Z,98944.00
2018-07-14T04:58:58.048Z,98940.00
2018-07-14T05:01:38.644Z,98941.00
2018-07-14T05:04:17.791Z,98940.00
2018-07-14T05:07:07.059Z,98932.00
2018-07-14T05:09:47.405Z,98938.00
2018-07-14T05:12:25.105Z,98935.00
2018-07-14T05:15:02.657Z,98932.00
2018-07-14T05:17:45.123Z,98926.00
2018-07-14T05:20:24.257Z,98932.00
2018-07-14T05:25:48.150Z,98925.00
2018-07-14T05:28:24.024Z,98934.00
2018-07-14T05:30:56.491Z,98932.00
2018-07-14T05:33:28.108Z,98932.00
2018-07-14T05:36:03.797Z,98931.00
2018-07-14T05:38:34.580Z,98933.00
2018-07-14T05:41:06.950Z,98928.00
2018-07-14T05:43:47.394Z,98927.00
2018-07-14T05:46:21.159Z,98931.00
2018-07-14T05:48:53.033Z,98939.00
2018-07-14T05:51:23.024Z,98938.00
2018-07-14T05:53:57.190Z,98942.00
2018-07-14T05:56:28.340Z,98941.00
2018-07-14T05:58:57.408Z,98937.00
2018-07-14T06:01:26.744Z,98940.00
2018-07-14T06:03:56.281Z,98942.00
2018-07-14T06:06:25.694Z,98945.00
2018-07-14T06:08:54.856Z,98950.00
2018-07-14T06:11:23.981Z,98947.00
2018-07-14T06:13:53.480Z,98950.00
2018-07-14T06:16:22.697Z,98947.00
2018-07-14T06:18:52.100Z,98944.00
2018-07-14T06:21:22.134Z,98942.00
2018-07-14T06:23:51.900Z,98947.00
2018-07-14T06:26:21.009Z,98945.00
2018-07-14T06:28:50.608Z,98948.00
2018-07-14T06:31:19.696Z,98944.00
2018-07-14T06:33:48.827Z,98948.00
2018-07-14T06:36:17.921Z,98944.00
2018-07-14T06:38:48.856Z,98942.00
2018-07-14T06:41:20.310Z,98939.00
2018-07-14T06:43:50.013Z,98945.00
2018-07-14T06:46:19.624Z,98950.00
2018-07-14T06:48:49.632Z,98951.00
2018-07-14T06:51:18.761Z,98944.00
2018-07-14T06:53:47.836Z,98941.00
2018-07-14T06:56:18.836Z,98943.00
2018-07-14T06:58:52.061Z,98945.00
2018-07-14T07:01:21.872Z,98942.00
2018-07-14T07:03:51.560Z,98939.00
2018-07-14T07:06:23.238Z,98935.00
2018-07-14T07:08:57.545Z,98937.00
2018-07-14T07:11:29.733Z,98937.00
2018-07-14T07:13:59.340Z,98940.00
2018-07-14T07:16:31.625Z,98934.00
2018-07-14T07:19:03.043Z,98932.00
2018-07-14T07:21:32.851Z,98938.00
2018-07-14T07:24:03.193Z,98935.00
2018-07-14T07:26:34.432Z,98932.00
2018-07-14T07:29:11.488Z,98939.00
2018-07-14T07:31:43.041Z,98938.00
2018-07-14T07:34:14.961Z,98929.00
2018-07-14T07:36:46.153Z,98930.00
2018-07-14T07:39:16.909Z,98928.00
2018-07-14T07:41:52.420Z,98923.00
2018-07-14T07:44:24.384Z,98909.00
2018-07-14T07:46:56.853Z,98908.00
2018-07-14T07:49:30.600Z,98908.00
2018-07-14T07:52:00.124Z,98905.00
2018-07-14T07:54:31.295Z,98901.00
2018-07-14T07:57:04.973Z,98896.00
2018-07-14T07:59:36.570Z,98907.00
2018-07-14T08:02:09.813Z,98910.00
2018-07-14T08:04:42.060Z,98908.00
2018-07-14T08:07:17.208Z,98902.00
2018-07-14T08:09:47.828Z,98901.00
2018-07-14T08:12:17.348Z,98887.00
2018-07-14T08:14:48.758Z,98877.00
2018-07-14T08:17:23.804Z,98867.00
2018-07-14T08:19:53.837Z,98862.00
2018-07-14T08:22:26.366Z,98870.00
2018-07-14T08:24:56.120Z,98868.00
2018-07-14T08:27:25.728Z,98872.00
2018-07-14T08:30:01.152Z,98864.00
2018-07-14T08:32:30.798Z,98867.00
2018-07-14T08:35:01.470Z,98861.00
2018-07-14T08:37:34.988Z,98854.00
2018-07-14T08:40:04.140Z,98837.00
2018-07-14T08:42:33.813Z,98845.00
2018-07-14T08:45:05.189Z,98860.00
2018-07-14T08:47:34.356Z,98845.00
2018-07-14T08:50:06.222Z,98839.00
2018-07-14T08:52:36.860Z,98838.00
2018-07-14T08:55:08.541Z,98834.00
2018-07-14T08:57:38.052Z,98833.00
2018-07-14T09:00:09.173Z,98822.00
2018-07-14T09:02:40.188Z,98829.00
2018-07-14T09:05:11.461Z,98814.00
2018-07-14T09:07:41.349Z,98812.00
2018-07-14T09:10:11.156Z,98832.00
2018-07-14T09:12:44.157Z,98829.00
2018-07-14T09:15:15.885Z,98827.00
2018-07-14T09:17:45.740Z,98823.00
2018-07-14T09:20:15.941Z,98833.00
2018-07-14T09:22:47.772Z,98826.00
2018-07-14T09:25:23.822Z,98825.00
2018-07-14T09:27:57.430Z,98812.00
2018-07-14T09:30:28.958Z,98805.00
2018-07-14T09:33:00.365Z,98801.00
2018-07-14T09:35:38.996Z,98806.00
2018-07-14T09:38:09.822Z,98810.00
2018-07-14T09:40:46.694Z,98803.00
2018-07-14T09:43:17.705Z,98802.00
2018-07-14T09:45:49.233Z,98803.00
2018-07-14T09:48:19.865Z,98792.00
2018-07-14T09:50:50.661Z,98790.00
2018-07-14T09:53:24.713Z,98801.00
2018-07-14T09:55:54.817Z,98804.00
2018-07-14T09:58:27.978Z,98796.00
2018-07-14T10:01:08.371Z,98790.00
2018-07-14T10:03:40.536Z,98785.00
2018-07-14T10:06:15.528Z,98797.00
2018-07-14T10:08:44.651Z,98792.00
2018-07-14T10:11:19.120Z,98780.00
2018-07-14T10:13:49.850Z,98771.00
2018-07-14T10:16:26.072Z,98768.00
2018-07-14T10:19:00.597Z,98767.00
2018-07-14T10:21:31.502Z,98768.00
2018-07-14T10:24:09.331Z,98763.00
2018-07-14T10:26:38.636Z,98762.00
2018-07-14T10:29:08.798Z,98769.00
2018-07-14T10:31:38.572Z,98761.00
2018-07-14T10:34:08.778Z,98760.00
2018-07-14T10:36:39.718Z,98757.00
2018-07-14T10:39:10.558Z,98753.00
2018-07-14T10:41:39.656Z,98747.00
2018-07-14T10:44:11.216Z,98744.00
2018-07-14T10:46:43.958Z,98751.00
2018-07-14T10:49:14.413Z,98742.00
2018-07-14T10:51:44.938Z,98747.00
2018-07-14T10:54:16.812Z,98749.00
2018-07-14T10:56:46.538Z,98746.00
2018-07-14T10:59:18.472Z,98749.00
2018-07-14T11:01:54.224Z,98753.00
2018-07-14T11:04:25.352Z,98751.00
2018-07-14T11:06:55.909Z,98737.00
2018-07-14T11:09:30.532Z,98743.00
2018-07-14T11:12:03.375Z,98738.00
2018-07-14T11:14:34.142Z,98735.00
2018-07-14T11:17:04.311Z,98735.00
2018-07-14T11:19:33.645Z,98736.00
2018-07-14T11:22:05.808Z,98732.00
2018-07-14T11:24:36.859Z,98726.00
2018-07-14T11:27:09.049Z,98715.00
2018-07-14T11:29:41.117Z,98712.00
2018-07-14T11:32:11.517Z,98711.00
2018-07-14T11:34:43.709Z,98706.00
2018-07-14T11:37:14.136Z,98705.00
2018-07-14T11:39:45.211Z,98706.00
2018-07-14T11:42:15.656Z,98698.00
2018-07-14T11:44:45.316Z,98698.00
2018-07-14T11:47:22.453Z,98703.00
2018-07-14T11:50:02.192Z,98699.00
2018-07-14T11:52:33.876Z,98705.00
2018-07-14T11:55:05.301Z,98722.00
2018-07-14T11:57:35.780Z,98712.00
2018-07-14T12:00:07.434Z,98707.00
2018-07-14T12:02:42.576Z,98698.00
2018-07-14T12:05:16.281Z,98695.00
2018-07-14T12:07:53.742Z,98701.00
2018-07-14T12:10:23.801Z,98702.00
2018-07-14T12:12:55.112Z,98702.00
2018-07-14T12:15:25.977Z,98700.00
2018-07-14T12:17:57.953Z,98697.00
2018-07-14T12:20:29.340Z,98695.00
2018-07-14T12:22:59.268Z,98686.00
2018-07-14T12:25:32.404Z,98683.00
2018-07-14T12:28:04.248Z,98676.00
2018-07-14T12:30:39.266Z,98670.00
2018-07-14T12:33:14.812Z,98662.00
2018-07-14T12:35:45.773Z,98655.00
2018-07-14T12:38:22.508Z,98652.00
2018-07-14T12:40:58.689Z,98652.00
2018-07-14T12:43:30.601Z,98652.00
2018-07-14T12:46:00.820Z,98648.00
2018-07-14T12:48:33.600Z,98654.00
2018-07-14T12:51:04.103Z,98650.00
2018-07-14T12:53:35.660Z,98643.00
2018-07-14T12:56:04.833Z,98631.00
2018-07-14T12:58:33.696Z,98637.00
2018-07-14T13:01:04.904Z,98649.00
2018-07-14T13:03:36.833Z,98647.00
2018-07-14T13:06:10.705Z,98645.00
2018-07-14T13:08:41.018Z,98644.00
2018-07-14T13:11:13.253Z,98633.00
2018-07-14T13:13:42.381Z,98634.00
2018-07-14T13:16:13.356Z,98639.00
2018-07-14T13:18:42.542Z,98635.00
2018-07-14T13:21:12.464Z,98643.00
2018-07-14T13:23:43.894Z,98632.00
2018-07-14T13:26:13.977Z,98623.00
2018-07-14T13:28:45.581Z,98616.00
2018-07-14T13:31:16.057Z,98612.00
2018-07-14T13:33:46.903Z,98605.00
2018-07-14T13:36:16.523Z,98603.00
2018-07-14T13:38:51.734Z,98602.00
2018-07-14T13:41:17.608Z,98595.00
2018-07-14T13:43:51.021Z,98601.00
2018-07-14T13:46:21.361Z,98602.00
2018-07-14T13:48:53.804Z,98603.00
2018-07-14T13:51:23.601Z,98605.00
2018-07-14T13:53:55.333Z,98601.00
2018-07-14T13:56:26.240Z,98600.00
2018-07-14T13:58:58.229Z,98594.00
2018-07-14T14:01:29.709Z,98588.00
2018-07-14T14:04:09.684Z,98590.00
2018-07-14T14:06:49.903Z,98598.00
2018-07-14T14:09:32.875Z,98595.00
2018-07-14T14:12:16.815Z,98596.00
2018-07-14T14:17:43.233Z,98585.00
2018-07-14T14:23:01.390Z,98582.00
2018-07-14T14:25:40.376Z,98577.00
2018-07-14T14:28:14.261Z,98574.00
2018-07-14T14:33:42.195Z,98567.00
2018-07-14T14:36:13.413Z,98571.00
2018-07-14T14:38:53.004Z,98564.00
2018-07-14T14:41:25.508Z,98567.00
2018-07-14T14:43:57.817Z,98571.00
2018-07-14T14:46:27.692Z,98582.00
2018-07-14T14:48:59.353Z,98585.00
2018-07-14T14:51:35.089Z,98589.00
2018-07-14T14:54:06.065Z,98587.00
2018-07-14T14:56:36.782Z,98584.00
2018-07-14T14:59:07.185Z,98586.00
2018-07-14T15:01:36.245Z,98588.00
2018-07-14T15:04:05.781Z,98586.00
2018-07-14T15:06:34.877Z,98584.00
2018-07-14T15:09:04.941Z,98585.00
2018-07-14T15:11:34.030Z,98587.00
2018-07-14T15:14:03.168Z,98582.00
2018-07-14T15:16:32.353Z,98578.00
2018-07-14T15:19:01.510Z,98573.00
2018-07-14T15:21:30.599Z,98570.00
2018-07-14T15:24:00.260Z,98575.00
2018-07-14T15:26:30.339Z,98581.00
2018-07-14T15:28:59.744Z,98580.00
2018-07-14T15:31:29.497Z,98571.00
2018-07-14T15:34:00.588Z,98570.00
2018-07-14T15:36:29.785Z,98572.00
2018-07-14T15:38:58.977Z,98565.00
2018-07-14T15:41:29.517Z,98567.00
2018-07-14T15:43:59.689Z,98573.00
2018-07-14T15:46:28.834Z,98570.00
2018-07-14T15:48:58.652Z,98568.00
2018-07-14T15:51:28.256Z,98566.00
2018-07-14T15:53:58.049Z,98570.00
2018-07-14T15:56:29.122Z,98570.00
2018-07-14T15:58:58.280Z,98571.00
2018-07-14T16:01:28.296Z,98571.00
2018-07-14T16:03:59.413Z,98574.00
2018-07-14T16:06:32.245Z,98569.00
2018-07-14T16:09:04.881Z,98565.00
2018-07-14T16:11:38.529Z,98563.00
2018-07-14T16:14:08.770Z,98567.00
2018-07-14T16:16:39.645Z,98569.00
2018-07-14T16:19:10.217Z,98567.00
2018-07-14T16:21:40.542Z,98562.00
2018-07-14T16:24:14.364Z,98562.00
2018-07-14T16:26:43.447Z,98553.00
2018-07-14T16:29:14.187Z,98551.00
2018-07-14T16:31:44.869Z,98551.00
2018-07-14T16:34:19.749Z,98551.00
2018-07-14T16:36:50.664Z,98550.00
2018-07-14T16:39:21.604Z,98547.00
2018-07-14T16:41:52.044Z,98539.00
2018-07-14T16:44:20.916Z,98538.00
2018-07-14T16:46:53.204Z,98533.00
2018-07-14T16:49:25.721Z,98534.00
2018-07-14T16:51:58.993Z,98529.00
2018-07-14T16:54:29.611Z,98529.00
2018-07-14T16:57:00.088Z,98530.00
2018-07-14T16:59:30.165Z,98529.00
2018-07-14T17:02:00.194Z,98530.00
2018-07-14T17:04:32.788Z,98527.00
2018-07-14T17:07:02.110Z,98525.00
2018-07-14T17:09:34.361Z,98522.00
2018-07-14T17:12:05.681Z,98517.00
2018-07-14T17:14:38.311Z,98519.00
2018-07-14T17:17:10.860Z,98522.00
2018-07-14T17:19:44.092Z,98518.00
2018-07-14T17:22:15.471Z,98531.00
2018-07-14T17:24:47.432Z,98529.00
2018-07-14T17:27:16.525Z,98519.00
2018-07-14T17:29:46.046Z,98519.00
2018-07-14T17:32:17.072Z,98513.00
2018-07-14T17:34:46.547Z,98520.00
2018-07-14T17:37:20.825Z,98516.00
2018-07-14T17:39:52.105Z,98520.00
2018-07-14T17:42:26.334Z,98513.00
2018-07-14T17:45:00.653Z,98512.00
2018-07-14T17:47:32.216Z,98516.00
2018-07-14T17:50:04.837Z,98513.00
2018-07-14T17:52:35.704Z,98515.00
2018-07-14T17:55:06.177Z,98514.00
2018-07-14T17:57:37.740Z,98517.00
2018-07-14T18:00:08.315Z,98513.00
2018-07-14T18:02:40.820Z,98517.00
2018-07-14T18:05:16.592Z,98517.00
2018-07-14T18:07:46.462Z,98516.00
2018-07-14T18:10:16.686Z,98514.00
2018-07-14T18:12:51.002Z,98515.00
2018-07-14T18:15:24.440Z,98516.00
2018-07-14T18:17:55.896Z,98517.00
2018-07-14T18:20:25.589Z,98519.00
2018-07-14T18:22:56.848Z,98522.00
2018-07-14T18:25:26.329Z,98522.00
2018-07-14T18:27:56.242Z,98526.00
2018-07-14T18:30:29.321Z,98524.00
2018-07-14T18:32:59.273Z,98521.00
2018-07-14T18:35:29.788Z,98526.00
2018-07-14T18:38:10.738Z,98527.00
2018-07-14T18:40:46.596Z,98522.00
2018-07-14T18:43:17.248Z,98534.00
2018-07-14T18:45:50.655Z,98537.00
2018-07-14T18:48:20.837Z,98538.00
2018-07-14T18:50:52.334Z,98535.00
2018-07-14T18:55:59.831Z,98542.00
2018-07-14T18:58:29.339Z,98547.00
2018-07-14T19:01:01.332Z,98553.00
2018-07-14T19:03:31.719Z,98555.00
2018-07-14T19:06:01.025Z,98559.00
2018-07-14T19:08:30.072Z,98553.00
2018-07-14T19:11:01.794Z,98552.00
2018-07-14T19:13:34.230Z,98563.00
2018-07-14T19:16:04.080Z,98560.00
2018-07-14T19:18:35.809Z,98562.00
2018-07-14T19:21:11.960Z,98562.00
2018-07-14T19:23:44.027Z,98558.00
2018-07-14T19:26:13.477Z,98562.00
2018-07-14T19:28:42.535Z,98571.00
2018-07-14T19:31:13.253Z,98573.00
2018-07-14T19:33:45.553Z,98582.00
2018-07-14T19:36:15.029Z,98583.00
2018-07-14T19:38:46.889Z,98589.00
2018-07-14T19:41:18.142Z,98588.00
2018-07-14T19:43:51.788Z,98595.00
2018-07-14T19:46:21.568Z,98606.00
2018-07-14T19:48:56.181Z,98606.00
2018-07-14T19:51:26.401Z,98616.00
2018-07-14T19:53:56.349Z,98618.00
2018-07-14T19:56:26.534Z,98625.00
2018-07-14T19:58:58.321Z,98638.00
2018-07-14T20:01:28.496Z,98636.00
2018-07-14T20:03:58.240Z,98637.00
2018-07-14T20:06:29.596Z,98642.00
2018-07-14T20:08:59.855Z,98646.00
2018-07-14T20:11:29.557Z,98650.00
2018-07-14T20:14:03.826Z,98655.00
2018-07-14T20:16:34.441Z,98657.00
2018-07-14T20:19:07.861Z,98654.00
2018-07-14T20:21:38.561Z,98655.00
2018-07-14T20:24:09.075Z,98655.00
2018-07-14T20:26:42.900Z,98657.00
2018-07-14T20:29:15.613Z,98660.00
2018-07-14T20:31:50.030Z,98658.00
2018-07-14T20:34:24.197Z,98662.00
2018-07-14T20:36:57.817Z,98663.00
2018-07-14T20:39:31.590Z,98668.00
2018-07-14T20:42:02.085Z,98673.00
2018-07-14T20:44:38.860Z,98669.00
2018-07-14T20:47:14.871Z,98670.00
2018-07-14T20:49:48.109Z,98670.00
2018-07-14T20:52:18.789Z,98669.00
2018-07-14T20:54:51.156Z,98672.00
2018-07-14T20:57:23.221Z,98672.00
2018-07-14T21:00:00.874Z,98672.00
2018-07-14T21:02:30.590Z,98673.00
2018-07-14T21:05:02.528Z,98670.00
2018-07-14T21:07:31.660Z,98668.00
2018-07-14T21:10:01.557Z,98673.00
2018-07-14T21:12:36.857Z,98675.00
2018-07-14T21:15:07.531Z,98681.00
2018-07-14T21:17:39.449Z,98673.00
2018-07-14T21:20:11.461Z,98678.00
2018-07-14T21:22:42.221Z,98678.00
2018-07-14T21:25:15.288Z,98679.00
2018-07-14T21:27:45.603Z,98681.00
2018-07-14T21:30:19.904Z,98681.00
2018-07-14T21:33:01.449Z,98682.00
2018-07-14T21:35:30.812Z,98683.00
2018-07-14T21:38:06.649Z,98683.00
2018-07-14T21:40:36.478Z,98691.00
2018-07-14T21:43:05.552Z,98692.00
2018-07-14T21:45:36.748Z,98693.00
2018-07-14T21:48:14.222Z,98693.00
2018-07-14T21:50:43.739Z,98691.00
2018-07-14T21:53:16.097Z,98691.00
2018-07-14T21:55:48.155Z,98693.00
2018-07-14T21:58:19.492Z,98692.00
2018-07-14T22:00:55.806Z,98692.00
2018-07-14T22:03:27.220Z,98692.00
2018-07-14T22:06:06.791Z,98694.00
2018-07-14T22:08:36.779Z,98699.00
2018-07-14T22:11:12.105Z,98703.00
2018-07-14T22:13:42.925Z,98707.00
2018-07-14T22:16:15.365Z,98700.00
2018-07-14T22:18:45.005Z,98706.00
2018-07-14T22:21:16.871Z,98707.00
2018-07-14T22:23:47.942Z,98706.00
2018-07-14T22:26:17.092Z,98709.00
2018-07-14T22:28:56.133Z,98711.00
2018-07-14T22:31:25.928Z,98712.00
2018-07-14T22:33:56.005Z,98712.00
2018-07-14T22:36:28.968Z,98716.00
2018-07-14T22:39:08.900Z,98717.00
2018-07-14T22:41:39.544Z,98715.00
2018-07-14T22:44:10.392Z,98722.00
2018-07-14T22:46:43.029Z,98722.00
2018-07-14T22:49:19.705Z,98719.00
2018-07-14T22:51:50.031Z,98723.00
2018-07-14T22:54:20.101Z,98724.00
2018-07-14T22:56:51.889Z,98720.00
2018-07-14T22:59:26.808Z,98727.00
2018-07-14T23:01:58.042Z,98725.00
2018-07-14T23:04:31.251Z,98728.00
2018-07-14T23:07:13.597Z,98726.00
2018-07-14T23:09:44.557Z,98729.00
2018-07-14T23:12:18.332Z,98722.00
2018-07-14T23:14:54.313Z,98716.00
2018-07-14T23:17:36.814Z,98718.00
2018-07-14T23:20:09.192Z,98716.00
2018-07-14T23:22:40.502Z,98719.00
2018-07-14T23:25:14.153Z,98723.00
2018-07-14T23:27:55.162Z,98720.00
2018-07-14T23:30:35.776Z,98717.00
2018-07-14T23:33:14.484Z,98716.00
2018-07-14T23:35:52.935Z,98714.00
2018-07-14T23:38:28.956Z,98714.00
2018-07-14T23:41:06.641Z,98714.00
2018-07-14T23:43:39.093Z,98719.00
2018-07-14T23:48:54.456Z,98714.00
2018-07-14T23:51:23.584Z,98714.00
2018-07-14T23:53:55.134Z,98714.00
2018-07-14T23:56:24.494Z,98711.00
2018-07-14T23:58:54.500Z,98708.00
